createdAt,value
2019-01-16T00:00:41.376Z,0.00
2019-01-16T00:01:41.366Z,0.00
2019-01-16T00:02:41.357Z,0.00
2019-01-16T00:03:41.338Z,0.00
2019-01-16T00:04:41.329Z,0.00
2019-01-16T00:05:41.324Z,0.00
2019-01-16T00:06:41.307Z,0.00
2019-01-16T00:07:41.303Z,0.00
2019-01-16T00:08:41.294Z,0.00
2019-01-16T00:09:41.273Z,0.00
2019-01-16T00:10:41.267Z,0.00
2019-01-16T00:11:41.257Z,0.00
2019-01-16T00:12:41.242Z,0.00
2019-01-16T00:13:41.240Z,0.00
2019-01-16T00:14:41.235Z,0.00
2019-01-16T00:15:41.210Z,0.00
2019-01-16T00:16:41.262Z,0.00
2019-01-16T00:17:41.195Z,0.00
2019-01-16T00:18:41.200Z,0.00
2019-01-16T00:19:41.172Z,0.00
2019-01-16T00:20:41.241Z,0.00
2019-01-16T00:21:41.154Z,0.00
2019-01-16T00:22:41.153Z,0.00
2019-01-16T00:23:41.128Z,0.00
2019-01-16T00:24:41.151Z,0.00
2019-01-16T00:25:41.102Z,0.00
2019-01-16T00:26:41.094Z,0.00
2019-01-16T00:27:41.088Z,0.00
2019-01-16T00:28:41.070Z,0.00
2019-01-16T00:29:41.067Z,0.00
2019-01-16T00:30:41.062Z,0.00
2019-01-16T00:31:41.039Z,0.00
2019-01-16T00:32:41.031Z,0.00
2019-01-16T00:33:41.022Z,0.00
2019-01-16T00:34:41.017Z,0.00
2019-01-16T00:35:41.001Z,0.00
2019-01-16T00:36:40.988Z,0.00
2019-01-16T00:37:40.989Z,0.00
2019-01-16T00:38:40.965Z,0.00
2019-01-16T00:39:40.954Z,0.00
2019-01-16T00:40:40.948Z,0.00
2019-01-16T00:41:40.941Z,0.00
2019-01-16T00:42:40.924Z,0.00
2019-01-16T00:43:40.923Z,0.00
2019-01-16T00:44:40.906Z,0.00
2019-01-16T00:45:40.893Z,0.00
2019-01-16T00:46:40.883Z,0.00
2019-01-16T00:47:40.875Z,0.00
2019-01-16T00:48:40.860Z,0.00
2019-01-16T00:49:40.856Z,0.00
2019-01-16T00:50:40.836Z,0.00
2019-01-16T00:51:40.825Z,0.00
2019-01-16T00:52:40.818Z,0.00
2019-01-16T00:53:40.807Z,0.00
2019-01-16T00:54:40.797Z,0.00
2019-01-16T00:55:40.791Z,0.00
2019-01-16T00:56:40.779Z,0.00
2019-01-16T00:57:40.773Z,0.00
2019-01-16T00:58:40.753Z,0.00
2019-01-16T00:59:40.738Z,0.00
2019-01-16T01:00:40.731Z,0.00
2019-01-16T01:01:40.716Z,0.00
2019-01-16T01:02:40.703Z,0.00
2019-01-16T01:03:40.695Z,0.00
2019-01-16T01:04:40.694Z,0.00
2019-01-16T01:05:40.677Z,0.00
2019-01-16T01:06:40.668Z,0.00
2019-01-16T01:07:40.658Z,0.00
2019-01-16T01:08:40.639Z,0.00
2019-01-16T01:09:40.635Z,0.00
2019-01-16T01:10:40.618Z,0.00
2019-01-16T01:11:40.608Z,0.00
2019-01-16T01:12:40.603Z,0.00
2019-01-16T01:13:40.590Z,0.00
2019-01-16T01:14:40.746Z,0.00
2019-01-16T01:15:40.568Z,0.00
2019-01-16T01:16:40.556Z,0.00
2019-01-16T01:17:40.544Z,0.00
2019-01-16T01:18:41.205Z,0.00
2019-01-16T01:19:40.524Z,0.00
2019-01-16T01:20:40.515Z,0.00
2019-01-16T01:21:40.504Z,0.00
2019-01-16T01:22:40.521Z,0.00
2019-01-16T01:23:40.480Z,0.00
2019-01-16T01:24:40.475Z,0.00
2019-01-16T01:25:40.460Z,0.00
2019-01-16T01:26:40.457Z,0.00
2019-01-16T01:27:40.445Z,0.00
2019-01-16T01:28:40.429Z,0.00
2019-01-16T01:29:40.420Z,0.00
2019-01-16T01:30:40.411Z,0.00
2019-01-16T01:31:40.398Z,0.00
2019-01-16T01:32:40.391Z,0.00
2019-01-16T01:33:40.376Z,0.00
2019-01-16T01:34:40.367Z,0.00
2019-01-16T01:35:40.353Z,0.00
2019-01-16T01:36:40.349Z,0.00
2019-01-16T01:37:40.342Z,0.00
2019-01-16T01:38:40.325Z,0.00
2019-01-16T01:39:40.310Z,0.00
2019-01-16T01:40:40.305Z,0.00
2019-01-16T01:41:40.288Z,0.00
2019-01-16T01:42:40.287Z,0.00
2019-01-16T01:43:40.269Z,0.00
2019-01-16T01:44:40.259Z,0.00
2019-01-16T01:45:40.248Z,0.00
2019-01-16T01:46:40.239Z,0.00
2019-01-16T01:47:40.227Z,0.00
2019-01-16T01:48:40.382Z,0.00
2019-01-16T01:49:40.203Z,0.00
2019-01-16T01:50:40.193Z,0.00
2019-01-16T01:51:40.183Z,0.00
2019-01-16T01:52:40.173Z,0.00
2019-01-16T01:53:40.171Z,0.00
2019-01-16T01:54:40.167Z,0.00
2019-01-16T01:55:40.145Z,0.00
2019-01-16T01:56:40.132Z,0.00
2019-01-16T01:57:40.122Z,0.00
2019-01-16T01:58:40.110Z,0.00
2019-01-16T01:59:40.102Z,0.00
2019-01-16T02:00:40.098Z,0.00
2019-01-16T02:01:40.085Z,0.00
2019-01-16T02:02:40.073Z,0.00
2019-01-16T02:03:40.056Z,0.00
2019-01-16T02:04:40.052Z,0.00
2019-01-16T02:05:40.040Z,0.00
2019-01-16T02:06:40.039Z,0.00
2019-01-16T02:07:40.023Z,0.00
2019-01-16T02:08:40.008Z,0.00
2019-01-16T02:09:39.995Z,0.00
2019-01-16T02:10:39.989Z,0.00
2019-01-16T02:11:39.980Z,0.00
2019-01-16T02:12:39.974Z,0.00
2019-01-16T02:13:39.968Z,0.00
2019-01-16T02:14:39.945Z,0.00
2019-01-16T02:15:39.931Z,0.00
2019-01-16T02:16:39.927Z,0.00
2019-01-16T02:17:39.908Z,0.00
2019-01-16T02:18:47.163Z,0.00
2019-01-16T02:19:40.883Z,0.00
2019-01-16T02:20:39.875Z,0.00
2019-01-16T02:21:39.870Z,0.00
2019-01-16T02:22:39.861Z,0.00
2019-01-16T02:23:39.844Z,0.00
2019-01-16T02:24:39.854Z,0.00
2019-01-16T02:25:39.823Z,0.00
2019-01-16T02:26:39.809Z,0.00
2019-01-16T02:27:39.799Z,0.00
2019-01-16T02:28:39.786Z,0.00
2019-01-16T02:29:39.784Z,0.00
2019-01-16T02:30:39.775Z,0.00
2019-01-16T02:31:39.754Z,0.00
2019-01-16T02:32:39.747Z,0.00
2019-01-16T02:33:39.738Z,0.00
2019-01-16T02:34:39.728Z,0.00
2019-01-16T02:35:39.718Z,0.00
2019-01-16T02:36:39.706Z,0.00
2019-01-16T02:37:39.693Z,0.00
2019-01-16T02:38:39.681Z,0.00
2019-01-16T02:39:39.674Z,0.00
2019-01-16T02:40:39.660Z,0.00
2019-01-16T02:41:39.659Z,0.00
2019-01-16T02:42:39.645Z,0.00
2019-01-16T02:43:39.627Z,0.00
2019-01-16T02:44:39.617Z,0.00
2019-01-16T02:45:39.612Z,0.00
2019-01-16T02:46:39.599Z,0.00
2019-01-16T02:47:39.602Z,0.00
2019-01-16T02:48:39.580Z,0.00
2019-01-16T02:49:39.564Z,0.00
2019-01-16T02:50:39.552Z,0.00
2019-01-16T02:51:39.552Z,0.00
2019-01-16T02:52:39.543Z,0.00
2019-01-16T02:53:39.529Z,0.00
2019-01-16T02:54:39.519Z,0.00
2019-01-16T02:55:39.500Z,0.00
2019-01-16T02:56:39.489Z,0.00
2019-01-16T02:57:39.480Z,0.00
2019-01-16T02:58:39.469Z,0.00
2019-01-16T02:59:39.479Z,0.00
2019-01-16T03:00:39.454Z,0.00
2019-01-16T03:01:39.436Z,0.00
2019-01-16T03:02:39.425Z,0.00
2019-01-16T03:03:39.419Z,0.00
2019-01-16T03:04:39.416Z,0.00
2019-01-16T03:05:39.391Z,0.00
2019-01-16T03:06:39.403Z,0.00
2019-01-16T03:07:39.436Z,0.00
2019-01-16T03:08:39.364Z,0.00
2019-01-16T03:09:39.349Z,0.00
2019-01-16T03:10:39.342Z,0.00
2019-01-16T03:11:39.330Z,0.00
2019-01-16T03:12:39.319Z,0.00
2019-01-16T03:13:39.305Z,0.00
2019-01-16T03:14:39.295Z,0.00
2019-01-16T03:15:39.287Z,0.00
2019-01-16T03:16:39.282Z,0.00
2019-01-16T03:17:39.269Z,0.00
2019-01-16T03:18:39.261Z,0.00
2019-01-16T03:19:39.242Z,0.00
2019-01-16T03:20:39.235Z,0.00
2019-01-16T03:21:39.221Z,0.00
2019-01-16T03:22:39.233Z,0.00
2019-01-16T03:23:39.204Z,0.00
2019-01-16T03:24:39.190Z,0.00
2019-01-16T03:25:39.189Z,0.00
2019-01-16T03:26:39.173Z,0.00
2019-01-16T03:27:39.158Z,0.00
2019-01-16T03:28:39.156Z,0.00
2019-01-16T03:29:39.142Z,0.00
2019-01-16T03:30:39.134Z,0.00
2019-01-16T03:31:39.120Z,0.00
2019-01-16T03:32:39.111Z,0.00
2019-01-16T03:33:39.100Z,0.00
2019-01-16T03:34:39.092Z,0.00
2019-01-16T03:35:39.083Z,0.00
2019-01-16T03:36:39.063Z,0.00
2019-01-16T03:37:39.051Z,0.00
2019-01-16T03:38:39.040Z,0.00
2019-01-16T03:39:39.034Z,0.00
2019-01-16T03:40:39.040Z,0.00
2019-01-16T03:41:39.015Z,0.00
2019-01-16T03:42:38.999Z,0.00
2019-01-16T03:43:38.992Z,0.00
2019-01-16T03:44:38.988Z,0.00
2019-01-16T03:45:38.966Z,0.00
2019-01-16T03:46:38.963Z,0.00
2019-01-16T03:47:38.948Z,0.00
2019-01-16T03:48:38.940Z,0.00
2019-01-16T03:49:38.924Z,0.00
2019-01-16T03:50:38.926Z,0.00
2019-01-16T03:51:38.904Z,0.00
2019-01-16T03:52:38.894Z,0.00
2019-01-16T03:53:38.879Z,0.00
2019-01-16T03:54:38.869Z,0.00
2019-01-16T03:55:38.857Z,0.00
2019-01-16T03:56:38.889Z,0.00
2019-01-16T03:57:38.842Z,0.00
2019-01-16T03:58:38.829Z,0.00
2019-01-16T03:59:38.816Z,0.00
2019-01-16T04:00:38.805Z,0.00
2019-01-16T04:01:38.796Z,0.00
2019-01-16T04:02:38.789Z,0.00
2019-01-16T04:03:38.785Z,0.00
2019-01-16T04:04:38.761Z,0.00
2019-01-16T04:05:38.755Z,0.00
2019-01-16T04:06:38.739Z,0.00
2019-01-16T04:07:38.741Z,0.00
2019-01-16T04:08:38.728Z,0.00
2019-01-16T04:09:38.715Z,0.00
2019-01-16T04:10:38.699Z,0.00
2019-01-16T04:11:38.688Z,0.00
2019-01-16T04:12:38.678Z,0.00
2019-01-16T04:13:38.673Z,0.00
2019-01-16T04:14:38.684Z,0.00
2019-01-16T04:15:38.662Z,0.00
2019-01-16T04:16:38.637Z,0.00
2019-01-16T04:17:38.634Z,0.00
2019-01-16T04:18:38.612Z,0.00
2019-01-16T04:19:38.606Z,0.00
2019-01-16T04:20:38.593Z,0.00
2019-01-16T04:21:38.601Z,0.00
2019-01-16T04:22:38.573Z,0.00
2019-01-16T04:23:38.559Z,0.00
2019-01-16T04:24:38.552Z,0.00
2019-01-16T04:25:38.541Z,0.00
2019-01-16T04:26:38.533Z,0.00
2019-01-16T04:27:38.528Z,0.00
2019-01-16T04:28:38.508Z,0.00
2019-01-16T04:29:38.496Z,0.00
2019-01-16T04:30:38.497Z,0.00
2019-01-16T04:31:38.476Z,0.00
2019-01-16T04:32:38.469Z,0.00
2019-01-16T04:33:38.455Z,0.00
2019-01-16T04:34:38.444Z,0.00
2019-01-16T04:35:38.432Z,0.00
2019-01-16T04:36:38.428Z,0.00
2019-01-16T04:37:38.414Z,0.00
2019-01-16T04:38:38.406Z,0.00
2019-01-16T04:39:38.409Z,0.00
2019-01-16T04:40:38.394Z,0.00
2019-01-16T04:41:38.373Z,0.00
2019-01-16T04:42:38.355Z,0.00
2019-01-16T04:43:38.347Z,0.00
2019-01-16T04:44:38.344Z,0.00
2019-01-16T04:45:38.349Z,0.00
2019-01-16T04:46:38.313Z,0.00
2019-01-16T04:47:38.303Z,0.00
2019-01-16T04:48:38.319Z,0.00
2019-01-16T04:49:38.282Z,0.00
2019-01-16T04:50:38.277Z,0.00
2019-01-16T04:51:38.276Z,0.00
2019-01-16T04:52:38.260Z,0.00
2019-01-16T04:53:38.310Z,0.00
2019-01-16T04:54:38.232Z,0.00
2019-01-16T04:55:38.221Z,0.00
2019-01-16T04:56:38.228Z,0.00
2019-01-16T04:57:38.196Z,0.00
2019-01-16T04:58:38.189Z,0.00
2019-01-16T04:59:38.180Z,0.00
2019-01-16T05:00:38.168Z,0.00
2019-01-16T05:01:38.155Z,0.00
2019-01-16T05:02:38.151Z,0.00
2019-01-16T05:03:38.134Z,0.00
2019-01-16T05:04:38.121Z,0.00
2019-01-16T05:05:38.109Z,0.00
2019-01-16T05:06:38.099Z,0.00
2019-01-16T05:07:38.093Z,0.00
2019-01-16T05:08:38.084Z,0.00
2019-01-16T05:09:38.071Z,0.00
2019-01-16T05:10:38.069Z,0.00
2019-01-16T05:11:38.047Z,0.00
2019-01-16T05:12:38.042Z,0.00
2019-01-16T05:13:38.027Z,0.00
2019-01-16T05:14:38.028Z,0.00
2019-01-16T05:15:38.009Z,0.00
2019-01-16T05:16:37.994Z,0.00
2019-01-16T05:17:37.984Z,0.00
2019-01-16T05:18:37.977Z,0.00
2019-01-16T05:19:38.664Z,0.00
2019-01-16T05:20:37.959Z,0.00
2019-01-16T05:21:37.945Z,0.00
2019-01-16T05:22:37.933Z,0.00
2019-01-16T05:23:37.917Z,0.00
2019-01-16T05:24:37.908Z,0.00
2019-01-16T05:25:37.915Z,0.00
2019-01-16T05:26:37.900Z,0.00
2019-01-16T05:27:37.876Z,0.00
2019-01-16T05:28:37.866Z,0.00
2019-01-16T05:29:37.855Z,0.00
2019-01-16T05:30:37.852Z,0.00
2019-01-16T05:31:37.854Z,0.00
2019-01-16T05:32:37.834Z,0.00
2019-01-16T05:33:37.816Z,0.00
2019-01-16T05:34:37.803Z,0.00
2019-01-16T05:35:37.791Z,0.00
2019-01-16T05:36:37.796Z,0.00
2019-01-16T05:37:37.771Z,0.00
2019-01-16T05:38:37.764Z,0.00
2019-01-16T05:39:37.749Z,0.00
2019-01-16T05:40:37.739Z,0.00
2019-01-16T05:41:37.730Z,0.00
2019-01-16T05:42:37.717Z,0.00
2019-01-16T05:43:37.708Z,0.00
2019-01-16T05:44:37.695Z,0.00
2019-01-16T05:45:37.685Z,0.00
2019-01-16T05:46:37.734Z,0.00
2019-01-16T05:47:37.667Z,0.00
2019-01-16T05:48:37.664Z,0.00
2019-01-16T05:49:37.652Z,0.00
2019-01-16T05:50:37.658Z,0.00
2019-01-16T05:51:37.628Z,0.00
2019-01-16T05:52:37.615Z,0.00
2019-01-16T05:53:37.599Z,0.00
2019-01-16T05:54:37.593Z,0.00
2019-01-16T05:55:37.582Z,0.00
2019-01-16T05:56:37.566Z,0.00
2019-01-16T05:57:37.557Z,0.00
2019-01-16T05:58:37.549Z,0.00
2019-01-16T05:59:37.536Z,0.00
2019-01-16T06:00:37.526Z,0.00
2019-01-16T06:01:37.526Z,0.00
2019-01-16T06:02:37.504Z,0.00
2019-01-16T06:03:37.492Z,0.00
2019-01-16T06:04:37.487Z,0.00
2019-01-16T06:05:37.475Z,0.00
2019-01-16T06:06:37.465Z,0.00
2019-01-16T06:07:37.460Z,0.00
2019-01-16T06:08:37.446Z,0.00
2019-01-16T06:09:37.436Z,0.00
2019-01-16T06:10:37.420Z,0.00
2019-01-16T06:11:37.416Z,0.00
2019-01-16T06:12:37.399Z,0.00
2019-01-16T06:13:37.402Z,0.00
2019-01-16T06:14:37.380Z,0.00
2019-01-16T06:15:37.367Z,0.00
2019-01-16T06:16:37.364Z,0.00
2019-01-16T06:17:37.351Z,0.00
2019-01-16T06:18:37.350Z,0.00
2019-01-16T06:19:37.330Z,0.00
2019-01-16T06:20:37.312Z,0.00
2019-01-16T06:21:37.302Z,0.00
2019-01-16T06:22:37.296Z,0.00
2019-01-16T06:23:37.293Z,0.00
2019-01-16T06:24:37.815Z,0.00
2019-01-16T06:25:37.261Z,0.00
2019-01-16T06:26:37.249Z,0.00
2019-01-16T06:27:37.238Z,0.00
2019-01-16T06:28:37.228Z,0.00
2019-01-16T06:29:37.217Z,0.00
2019-01-16T06:30:37.207Z,0.00
2019-01-16T06:31:37.238Z,0.00
2019-01-16T06:32:37.185Z,0.00
2019-01-16T06:33:37.175Z,0.00
2019-01-16T06:34:37.162Z,0.00
2019-01-16T06:35:37.218Z,0.00
2019-01-16T06:36:37.146Z,0.00
2019-01-16T06:37:37.148Z,0.00
2019-01-16T06:38:37.121Z,0.00
2019-01-16T06:39:37.110Z,0.00
2019-01-16T06:40:37.104Z,0.00
2019-01-16T06:41:37.106Z,0.00
2019-01-16T06:42:37.081Z,0.00
2019-01-16T06:43:37.089Z,0.00
2019-01-16T06:44:37.057Z,0.00
2019-01-16T06:45:37.051Z,0.00
2019-01-16T06:46:37.041Z,0.00
2019-01-16T06:47:37.040Z,0.00
2019-01-16T06:48:37.018Z,0.00
2019-01-16T06:49:37.004Z,0.00
2019-01-16T06:50:36.994Z,0.00
2019-01-16T06:51:36.983Z,0.00
2019-01-16T06:52:36.976Z,0.00
2019-01-16T06:53:36.965Z,0.00
2019-01-16T06:54:36.976Z,0.00
2019-01-16T06:55:36.941Z,0.00
2019-01-16T06:56:36.930Z,0.00
2019-01-16T06:57:36.921Z,0.00
2019-01-16T06:58:36.911Z,0.00
2019-01-16T06:59:37.824Z,0.00
2019-01-16T07:00:36.898Z,0.00
2019-01-16T07:01:36.878Z,0.00
2019-01-16T07:02:36.867Z,0.00
2019-01-16T07:03:36.855Z,0.00
2019-01-16T07:04:36.847Z,0.00
2019-01-16T07:05:36.834Z,0.00
2019-01-16T07:06:36.829Z,0.00
2019-01-16T07:07:36.825Z,0.00
2019-01-16T07:08:36.801Z,0.00
2019-01-16T07:09:38.062Z,0.00
2019-01-16T07:10:36.788Z,0.00
2019-01-16T07:11:36.777Z,0.00
2019-01-16T07:12:36.763Z,0.00
2019-01-16T07:13:36.746Z,0.00
2019-01-16T07:14:36.737Z,0.00
2019-01-16T07:15:36.736Z,0.00
2019-01-16T07:16:36.716Z,0.00
2019-01-16T07:17:36.710Z,0.00
2019-01-16T07:18:36.700Z,5.62
2019-01-16T07:19:36.686Z,0.00
2019-01-16T07:20:36.674Z,0.00
2019-01-16T07:21:36.674Z,0.00
2019-01-16T07:22:36.653Z,0.00
2019-01-16T07:23:36.644Z,0.00
2019-01-16T07:24:36.644Z,0.00
2019-01-16T07:25:36.620Z,0.00
2019-01-16T07:26:36.613Z,0.00
2019-01-16T07:27:36.602Z,0.00
2019-01-16T07:28:36.598Z,0.00
2019-01-16T07:29:36.578Z,0.00
2019-01-16T07:30:36.572Z,0.00
2019-01-16T07:31:36.559Z,0.00
2019-01-16T07:32:36.547Z,0.00
2019-01-16T07:33:36.540Z,0.00
2019-01-16T07:34:36.541Z,0.00
2019-01-16T07:35:36.515Z,0.00
2019-01-16T07:36:36.503Z,5.62
2019-01-16T07:37:36.493Z,5.62
2019-01-16T07:38:36.485Z,5.62
2019-01-16T07:39:36.475Z,0.00
2019-01-16T07:40:36.459Z,5.62
2019-01-16T07:41:36.531Z,5.62
2019-01-16T07:42:36.450Z,5.62
2019-01-16T07:43:36.430Z,0.00
2019-01-16T07:44:36.418Z,5.62
2019-01-16T07:45:36.411Z,5.62
2019-01-16T07:46:36.397Z,5.62
2019-01-16T07:47:36.400Z,5.62
2019-01-16T07:48:36.402Z,5.62
2019-01-16T07:49:36.368Z,5.62
2019-01-16T07:50:36.355Z,5.62
2019-01-16T07:51:36.350Z,5.62
2019-01-16T07:52:36.336Z,5.62
2019-01-16T07:53:36.329Z,5.62
2019-01-16T07:54:36.312Z,5.62
2019-01-16T07:55:36.298Z,5.62
2019-01-16T07:56:36.295Z,5.62
2019-01-16T07:57:36.288Z,5.62
2019-01-16T07:58:36.274Z,11.25
2019-01-16T07:59:36.264Z,11.25
2019-01-16T08:00:36.247Z,5.62
2019-01-16T08:01:36.238Z,5.62
2019-01-16T08:02:36.230Z,5.62
2019-01-16T08:03:36.225Z,11.25
2019-01-16T08:04:36.208Z,11.25
2019-01-16T08:05:36.207Z,5.62
2019-01-16T08:06:36.186Z,5.62
2019-01-16T08:07:36.172Z,5.62
2019-01-16T08:08:36.165Z,11.25
2019-01-16T08:09:36.159Z,5.62
2019-01-16T08:10:36.195Z,5.62
2019-01-16T08:11:36.137Z,5.62
2019-01-16T08:12:36.116Z,5.62
2019-01-16T08:13:36.109Z,11.25
2019-01-16T08:14:36.098Z,5.62
2019-01-16T08:15:36.103Z,5.62
2019-01-16T08:16:36.083Z,5.62
2019-01-16T08:17:36.084Z,5.62
2019-01-16T08:18:36.056Z,5.62
2019-01-16T08:19:36.047Z,5.62
2019-01-16T08:20:36.034Z,5.62
2019-01-16T08:21:36.034Z,5.62
2019-01-16T08:22:36.018Z,5.62
2019-01-16T08:23:36.003Z,11.25
2019-01-16T08:24:35.991Z,5.62
2019-01-16T08:25:35.982Z,5.62
2019-01-16T08:26:35.974Z,5.62
2019-01-16T08:27:35.972Z,11.25
2019-01-16T08:28:35.948Z,11.25
2019-01-16T08:29:35.938Z,11.25
2019-01-16T08:30:35.935Z,11.25
2019-01-16T08:31:35.916Z,11.25
2019-01-16T08:32:35.905Z,11.25
2019-01-16T08:33:35.895Z,11.25
2019-01-16T08:34:35.893Z,11.25
2019-01-16T08:35:35.890Z,11.25
2019-01-16T08:36:35.862Z,11.25
2019-01-16T08:37:35.853Z,11.25
2019-01-16T08:38:35.846Z,11.25
2019-01-16T08:39:35.830Z,11.25
2019-01-16T08:40:35.821Z,11.25
2019-01-16T08:41:35.809Z,16.88
2019-01-16T08:42:35.797Z,16.88
2019-01-16T08:43:35.794Z,11.25
2019-01-16T08:44:35.781Z,11.25
2019-01-16T08:45:35.770Z,11.25
2019-01-16T08:46:35.762Z,16.88
2019-01-16T08:47:35.771Z,11.25
2019-01-16T08:48:35.736Z,11.25
2019-01-16T08:49:35.727Z,11.25
2019-01-16T08:50:35.719Z,16.88
2019-01-16T08:51:35.703Z,16.88
2019-01-16T08:52:35.694Z,22.50
2019-01-16T08:53:35.682Z,22.50
2019-01-16T08:54:35.673Z,22.50
2019-01-16T08:55:35.664Z,16.88
2019-01-16T08:56:35.657Z,22.50
2019-01-16T08:57:35.644Z,22.50
2019-01-16T08:58:35.631Z,22.50
2019-01-16T08:59:35.621Z,22.50
2019-01-16T09:00:35.610Z,22.50
2019-01-16T09:01:35.604Z,22.50
2019-01-16T09:02:35.591Z,22.50
2019-01-16T09:03:35.575Z,22.50
2019-01-16T09:04:35.571Z,16.88
2019-01-16T09:05:35.578Z,16.88
2019-01-16T09:06:35.552Z,22.50
2019-01-16T09:07:35.533Z,22.50
2019-01-16T09:08:35.521Z,16.88
2019-01-16T09:09:35.513Z,16.88
2019-01-16T09:10:35.525Z,22.50
2019-01-16T09:11:35.491Z,16.88
2019-01-16T09:12:35.479Z,16.88
2019-01-16T09:13:35.481Z,16.88
2019-01-16T09:14:35.468Z,16.88
2019-01-16T09:15:35.452Z,16.88
2019-01-16T09:16:35.450Z,11.25
2019-01-16T09:17:35.427Z,11.25
2019-01-16T09:18:35.415Z,16.88
2019-01-16T09:19:35.406Z,16.88
2019-01-16T09:20:39.988Z,16.88
2019-01-16T09:21:35.384Z,16.88
2019-01-16T09:22:35.385Z,11.25
2019-01-16T09:23:35.363Z,11.25
2019-01-16T09:24:35.357Z,11.25
2019-01-16T09:25:35.340Z,11.25
2019-01-16T09:26:35.330Z,11.25
2019-01-16T09:27:35.327Z,5.62
2019-01-16T09:28:35.321Z,11.25
2019-01-16T09:29:35.340Z,11.25
2019-01-16T09:30:35.292Z,11.25
2019-01-16T09:31:35.279Z,11.25
2019-01-16T09:32:35.266Z,11.25
2019-01-16T09:33:35.258Z,11.25
2019-01-16T09:34:35.249Z,11.25
2019-01-16T09:35:35.234Z,11.25
2019-01-16T09:36:35.231Z,11.25
2019-01-16T09:37:35.214Z,5.62
2019-01-16T09:38:35.205Z,11.25
2019-01-16T09:39:35.193Z,11.25
2019-01-16T09:40:35.181Z,11.25
2019-01-16T09:41:35.169Z,16.88
2019-01-16T09:42:35.161Z,16.88
2019-01-16T09:43:35.149Z,16.88
2019-01-16T09:44:35.143Z,11.25
2019-01-16T09:45:35.132Z,11.25
2019-01-16T09:46:35.118Z,11.25
2019-01-16T09:47:35.107Z,11.25
2019-01-16T09:48:35.096Z,11.25
2019-01-16T09:49:35.084Z,11.25
2019-01-16T09:50:35.079Z,11.25
2019-01-16T09:51:35.073Z,11.25
2019-01-16T09:52:35.059Z,11.25
2019-01-16T09:53:35.043Z,16.88
2019-01-16T09:54:35.034Z,11.25
2019-01-16T09:55:35.031Z,11.25
2019-01-16T09:56:35.015Z,11.25
2019-01-16T09:57:35.007Z,11.25
2019-01-16T09:58:34.993Z,11.25
2019-01-16T09:59:34.979Z,11.25
2019-01-16T10:00:34.967Z,11.25
2019-01-16T10:01:34.964Z,16.88
2019-01-16T10:02:34.962Z,16.88
2019-01-16T10:03:34.952Z,22.50
2019-01-16T10:04:34.927Z,22.50
2019-01-16T10:05:34.917Z,28.12
2019-01-16T10:06:34.906Z,28.12
2019-01-16T10:07:34.904Z,28.12
2019-01-16T10:08:34.886Z,28.12
2019-01-16T10:09:34.883Z,22.50
2019-01-16T10:10:34.868Z,16.88
2019-01-16T10:11:34.862Z,16.88
2019-01-16T10:12:34.840Z,16.88
2019-01-16T10:13:34.845Z,16.88
2019-01-16T10:14:34.822Z,16.88
2019-01-16T10:15:34.821Z,22.50
2019-01-16T10:16:34.799Z,16.88
2019-01-16T10:17:34.787Z,16.88
2019-01-16T10:18:34.779Z,16.88
2019-01-16T10:19:34.769Z,16.88
2019-01-16T10:20:34.760Z,22.50
2019-01-16T10:21:34.749Z,22.50
2019-01-16T10:22:34.740Z,28.12
2019-01-16T10:23:34.726Z,28.12
2019-01-16T10:24:34.713Z,22.50
2019-01-16T10:25:34.705Z,22.50
2019-01-16T10:26:34.692Z,22.50
2019-01-16T10:27:34.692Z,28.12
2019-01-16T10:28:34.671Z,22.50
2019-01-16T10:29:34.660Z,28.12
2019-01-16T10:30:34.650Z,28.12
2019-01-16T10:31:34.652Z,22.50
2019-01-16T10:32:34.639Z,22.50
2019-01-16T10:33:34.640Z,22.50
2019-01-16T10:34:34.617Z,16.88
2019-01-16T10:35:34.597Z,16.88
2019-01-16T10:36:34.585Z,16.88
2019-01-16T10:37:34.575Z,16.88
2019-01-16T10:38:34.561Z,22.50
2019-01-16T10:39:34.553Z,28.12
2019-01-16T10:40:34.543Z,28.12
2019-01-16T10:41:34.531Z,28.12
2019-01-16T10:42:34.522Z,33.75
2019-01-16T10:43:34.515Z,28.12
2019-01-16T10:44:34.504Z,22.50
2019-01-16T10:45:34.491Z,22.50
2019-01-16T10:46:34.479Z,16.88
2019-01-16T10:47:34.472Z,22.50
2019-01-16T10:48:34.470Z,22.50
2019-01-16T10:49:34.448Z,22.50
2019-01-16T10:50:34.441Z,28.12
2019-01-16T10:51:34.426Z,28.12
2019-01-16T10:52:34.416Z,22.50
2019-01-16T10:53:34.405Z,22.50
2019-01-16T10:54:34.404Z,28.12
2019-01-16T10:55:34.382Z,22.50
2019-01-16T10:56:34.378Z,22.50
2019-01-16T10:57:34.363Z,28.12
2019-01-16T10:58:34.351Z,28.12
2019-01-16T10:59:34.342Z,28.12
2019-01-16T11:00:34.340Z,28.12
2019-01-16T11:01:34.323Z,28.12
2019-01-16T11:02:34.314Z,28.12
2019-01-16T11:03:34.299Z,28.12
2019-01-16T11:04:34.288Z,33.75
2019-01-16T11:05:34.279Z,33.75
2019-01-16T11:06:34.272Z,33.75
2019-01-16T11:07:34.260Z,33.75
2019-01-16T11:08:34.251Z,28.12
2019-01-16T11:09:34.237Z,28.12
2019-01-16T11:10:34.223Z,28.12
2019-01-16T11:11:34.210Z,28.12
2019-01-16T11:12:34.204Z,28.12
2019-01-16T11:13:34.211Z,28.12
2019-01-16T11:14:34.184Z,28.12
2019-01-16T11:15:34.167Z,28.12
2019-01-16T11:16:34.224Z,22.50
2019-01-16T11:17:34.155Z,22.50
2019-01-16T11:18:34.154Z,22.50
2019-01-16T11:19:34.128Z,22.50
2019-01-16T11:20:34.125Z,22.50
2019-01-16T11:21:34.105Z,22.50
2019-01-16T11:22:34.095Z,22.50
2019-01-16T11:23:34.084Z,28.12
2019-01-16T11:24:34.073Z,33.75
2019-01-16T11:25:34.063Z,33.75
2019-01-16T11:26:34.050Z,39.38
2019-01-16T11:27:34.040Z,39.38
2019-01-16T11:28:34.033Z,45.00
2019-01-16T11:29:34.020Z,45.00
2019-01-16T11:30:34.014Z,50.62
2019-01-16T11:31:34.011Z,50.62
2019-01-16T11:32:33.988Z,56.25
2019-01-16T11:33:33.976Z,50.62
2019-01-16T11:34:33.964Z,50.62
2019-01-16T11:35:33.956Z,50.62
2019-01-16T11:36:33.946Z,50.62
2019-01-16T11:37:33.939Z,50.62
2019-01-16T11:38:33.924Z,50.62
2019-01-16T11:39:33.912Z,56.25
2019-01-16T11:40:33.902Z,50.62
2019-01-16T11:41:33.893Z,56.25
2019-01-16T11:42:33.879Z,56.25
2019-01-16T11:43:33.876Z,50.62
2019-01-16T11:44:33.865Z,50.62
2019-01-16T11:45:33.852Z,45.00
2019-01-16T11:46:33.839Z,39.38
2019-01-16T11:47:33.835Z,39.38
2019-01-16T11:48:33.826Z,39.38
2019-01-16T11:49:33.812Z,39.38
2019-01-16T11:50:33.799Z,45.00
2019-01-16T11:51:33.885Z,45.00
2019-01-16T11:52:33.774Z,39.38
2019-01-16T11:53:33.768Z,45.00
2019-01-16T11:54:33.754Z,39.38
2019-01-16T11:55:33.746Z,39.38
2019-01-16T11:56:33.730Z,45.00
2019-01-16T11:57:33.722Z,45.00
2019-01-16T11:58:33.709Z,39.38
2019-01-16T11:59:33.710Z,39.38
2019-01-16T12:00:33.692Z,39.38
2019-01-16T12:01:33.693Z,45.00
2019-01-16T12:02:38.530Z,50.62
2019-01-16T12:03:34.660Z,56.25
2019-01-16T12:04:33.648Z,50.62
2019-01-16T12:05:33.637Z,50.62
2019-01-16T12:06:33.623Z,50.62
2019-01-16T12:07:33.615Z,56.25
2019-01-16T12:08:33.605Z,56.25
2019-01-16T12:09:33.592Z,50.62
2019-01-16T12:10:33.586Z,45.00
2019-01-16T12:11:33.573Z,50.62
2019-01-16T12:12:33.564Z,56.25
2019-01-16T12:13:33.554Z,50.62
2019-01-16T12:14:33.540Z,50.62
2019-01-16T12:15:33.532Z,50.62
2019-01-16T12:16:33.520Z,56.25
2019-01-16T12:17:33.511Z,45.00
2019-01-16T12:18:33.504Z,39.38
2019-01-16T12:19:33.486Z,39.38
2019-01-16T12:20:33.480Z,33.75
2019-01-16T12:21:33.464Z,33.75
2019-01-16T12:22:33.469Z,28.12
2019-01-16T12:23:33.442Z,22.50
2019-01-16T12:24:33.448Z,22.50
2019-01-16T12:25:33.576Z,22.50
2019-01-16T12:26:33.414Z,28.12
2019-01-16T12:27:33.401Z,28.12
2019-01-16T12:28:33.396Z,33.75
2019-01-16T12:29:33.380Z,33.75
2019-01-16T12:30:33.384Z,28.12
2019-01-16T12:31:33.357Z,33.75
2019-01-16T12:32:33.351Z,39.38
2019-01-16T12:33:33.339Z,33.75
2019-01-16T12:34:33.327Z,33.75
2019-01-16T12:35:33.316Z,28.12
2019-01-16T12:36:33.311Z,28.12
2019-01-16T12:37:33.309Z,28.12
2019-01-16T12:38:33.284Z,28.12
2019-01-16T12:39:33.269Z,33.75
2019-01-16T12:40:33.271Z,33.75
2019-01-16T12:41:33.251Z,33.75
2019-01-16T12:42:33.242Z,33.75
2019-01-16T12:43:33.256Z,39.38
2019-01-16T12:44:33.220Z,33.75
2019-01-16T12:45:33.209Z,33.75
2019-01-16T12:46:33.209Z,33.75
2019-01-16T12:47:33.185Z,33.75
2019-01-16T12:48:33.189Z,33.75
2019-01-16T12:49:33.165Z,33.75
2019-01-16T12:50:33.156Z,33.75
2019-01-16T12:51:33.791Z,33.75
2019-01-16T12:52:33.135Z,28.12
2019-01-16T12:53:33.126Z,28.12
2019-01-16T12:54:33.113Z,28.12
2019-01-16T12:55:33.100Z,28.12
2019-01-16T12:56:33.099Z,28.12
2019-01-16T12:57:33.086Z,28.12
2019-01-16T12:58:33.078Z,28.12
2019-01-16T12:59:33.059Z,28.12
2019-01-16T13:00:33.069Z,28.12
2019-01-16T13:01:33.040Z,28.12
2019-01-16T13:02:33.058Z,28.12
2019-01-16T13:03:33.016Z,28.12
2019-01-16T13:04:33.014Z,28.12
2019-01-16T13:05:33.002Z,28.12
2019-01-16T13:06:32.986Z,22.50
2019-01-16T13:07:32.973Z,22.50
2019-01-16T13:08:32.962Z,22.50